Time;durP1;ratioP1;P1;durP2;ratioP2;P2;SDS_P1;SDS_P2;PMS_P1;PMS_P2;Temp;Humidity;BMP_temperature;BMP_pressure;BME280_temperature;BME280_humidity;BME280_pressure;Samples;Min_cycle;Max_cycle;Signal;HPM_P1;HPM_P2
2023/09/02 00:04:18;;;;;;;3.17;1.20;;;;;;;22.70;63.70;100197.25;10372907;28;97891;-80
2023/09/02 00:09:22;;;;;;;2.72;1.10;;;;;;;22.74;63.64;100202.19;10373349;28;96744;-80
2023/09/02 00:14:26;;;;;;;1.65;1.20;;;;;;;22.79;63.23;100201.78;10373412;28;96682;-80
2023/09/02 00:19:31;;;;;;;1.50;0.93;;;;;;;22.52;64.26;100208.63;10372666;28;96696;-80
2023/09/02 00:24:35;;;;;;;1.50;1.05;;;;;;;22.60;63.89;100222.22;10373664;28;97461;-79
2023/09/02 00:29:38;;;;;;;1.58;0.90;;;;;;;22.53;64.13;100213.00;10372607;28;96724;-80
2023/09/02 00:34:43;;;;;;;1.65;0.95;;;;;;;22.49;64.36;100208.03;10373220;28;96967;-80
2023/09/02 00:39:46;;;;;;;1.58;1.05;;;;;;;22.43;64.71;100206.78;10371231;28;96708;-80
2023/09/02 00:44:50;;;;;;;3.50;1.20;;;;;;;22.50;64.42;100199.88;10372788;28;96884;-80
2023/09/02 00:49:55;;;;;;;1.77;1.23;;;;;;;22.40;64.72;100190.94;10395264;28;96704;-80
2023/09/02 00:54:59;;;;;;;1.52;1.13;;;;;;;22.17;64.88;100151.94;10414238;28;97118;-80
2023/09/02 01:00:04;;;;;;;3.67;1.70;;;;;;;22.09;65.86;100124.97;10413094;28;96734;-80
2023/09/02 01:05:10;;;;;;;2.03;1.48;;;;;;;22.36;64.84;100113.59;10412723;28;96757;-80
2023/09/02 01:10:14;;;;;;;2.88;1.55;;;;;;;22.24;65.29;100098.63;10413237;28;97688;-80
2023/09/02 01:15:17;;;;;;;2.25;1.17;;;;;;;22.12;65.60;100078.28;10413811;28;97529;-80
2023/09/02 01:20:25;;;;;;;3.22;1.67;;;;;;;21.98;66.00;100070.59;10386472;28;96824;-80
2023/09/02 01:25:59;;;;;;;3.25;1.30;;;;;;;21.90;66.22;100068.59;10372742;28;97415;-79
2023/09/02 01:31:06;;;;;;;;;;;;;;;21.86;66.60;100060.97;10370431;28;96791;-80
2023/09/02 01:36:12;;;;;;;1.95;1.10;;;;;;;21.99;65.43;100069.63;10371321;28;97538;-79
2023/09/02 01:41:16;;;;;;;2.10;1.10;;;;;;;21.94;65.59;100053.94;10375942;28;96800;-80
2023/09/02 01:46:22;;;;;;;2.85;1.30;;;;;;;21.95;65.35;100054.81;10369929;28;96675;-81
2023/09/02 01:51:27;;;;;;;1.50;1.02;;;;;;;22.07;64.90;100056.41;10370741;28;96767;-80
2023/09/02 01:56:30;;;;;;;;;;;;;;;22.02;65.36;100046.09;10371308;28;96789;-80
2023/09/02 02:01:35;;;;;;;1.65;1.40;;;;;;;22.02;65.01;100053.31;10370550;28;96763;-80
2023/09/02 02:06:41;;;;;;;2.78;1.45;;;;;;;22.01;65.26;100041.72;10371094;28;96942;-80
2023/09/02 02:11:46;;;;;;;1.92;1.30;;;;;;;22.05;65.64;100055.69;10370032;28;96681;-80
2023/09/02 02:16:53;;;;;;;2.20;1.58;;;;;;;22.05;66.02;100058.38;10370002;28;96653;-79
2023/09/02 02:21:57;;;;;;;2.80;1.35;;;;;;;22.04;66.41;100048.66;10369042;28;97786;-80
2023/09/02 02:27:00;;;;;;;3.03;1.40;;;;;;;22.07;66.36;100034.97;10372988;28;96722;-80
2023/09/02 02:32:06;;;;;;;3.27;1.33;;;;;;;22.01;66.61;100027.47;10377368;28;96813;-79
2023/09/02 02:37:09;;;;;;;2.05;1.15;;;;;;;21.94;66.94;100020.94;10376418;28;97636;-79
2023/09/02 02:42:14;;;;;;;1.77;1.30;;;;;;;21.93;66.94;100012.06;10376409;28;96953;-79
2023/09/02 02:47:19;;;;;;;2.47;1.38;;;;;;;21.96;66.70;100006.44;10376168;28;97185;-79
2023/09/02 02:52:22;;;;;;;2.10;1.33;;;;;;;21.90;66.55;100012.31;10376062;28;97555;-79
2023/09/02 02:57:26;;;;;;;2.13;1.60;;;;;;;21.84;66.76;100015.56;10376638;28;97116;-79
2023/09/02 03:02:31;;;;;;;1.67;1.20;;;;;;;21.82;66.99;100016.69;10375841;28;97507;-79
2023/09/02 03:07:34;;;;;;;2.53;1.40;;;;;;;21.78;67.37;100009.94;10376298;28;97552;-79
2023/09/02 03:12:37;;;;;;;1.75;1.35;;;;;;;21.70;67.31;100010.59;10374178;28;97600;-79
2023/09/02 03:17:42;;;;;;;2.47;1.52;;;;;;;21.65;67.59;100012.84;10374731;28;96880;-79
2023/09/02 03:22:46;;;;;;;2.42;1.60;;;;;;;21.65;67.65;100002.13;10375767;28;97540;-80
2023/09/02 03:27:49;;;;;;;3.65;1.67;;;;;;;21.60;67.97;100011.56;10375135;28;97594;-79
2023/09/02 03:32:54;;;;;;;2.75;1.55;;;;;;;21.59;68.05;100010.69;10374751;28;96713;-79
2023/09/02 03:37:57;;;;;;;2.72;1.50;;;;;;;21.44;68.77;100012.06;10373932;28;97237;-79
2023/09/02 03:43:01;;;;;;;2.42;1.40;;;;;;;21.46;68.38;100004.75;10374433;28;96729;-79
2023/09/02 03:48:06;;;;;;;2.25;1.45;;;;;;;21.36;68.67;100009.22;10374721;28;96894;-79
2023/09/02 03:53:10;;;;;;;3.80;1.52;;;;;;;21.49;68.20;100004.47;10373883;28;96609;-79
2023/09/02 03:58:14;;;;;;;3.35;1.55;;;;;;;21.21;69.16;100011.41;10374441;28;97687;-79
2023/09/02 04:03:21;;;;;;;2.75;1.80;;;;;;;21.21;69.25;100007.84;10372450;28;96708;-79
2023/09/02 04:08:26;;;;;;;2.15;1.60;;;;;;;21.24;69.13;100005.75;10373732;28;96682;-80
2023/09/02 04:13:29;;;;;;;2.45;1.70;;;;;;;21.23;68.86;100011.25;10374094;28;97168;-79
2023/09/02 04:18:34;;;;;;;3.70;1.70;;;;;;;21.30;68.65;100005.25;10372419;28;97338;-79
2023/09/02 04:23:37;;;;;;;1.77;1.20;;;;;;;21.32;68.77;100005.09;10372666;28;96734;-80
2023/09/02 04:28:40;;;;;;;2.30;1.48;;;;;;;21.42;68.50;100011.34;10379132;28;98669;-79
2023/09/02 04:33:45;;;;;;;1.70;1.42;;;;;;;21.47;68.36;99996.56;10414421;28;96588;-79
2023/09/02 04:38:48;;;;;;;1.60;1.20;;;;;;;21.63;67.98;99995.19;10414893;28;96773;-79
2023/09/02 04:43:52;;;;;;;2.28;1.42;;;;;;;21.58;68.02;99981.38;10414072;28;96719;-79
2023/09/02 04:48:57;;;;;;;3.30;1.63;;;;;;;21.46;68.54;99968.13;10411811;28;99627;-79
2023/09/02 04:54:00;;;;;;;3.33;1.80;;;;;;;21.63;68.15;99968.41;10412699;28;96761;-79
2023/09/02 04:59:04;;;;;;;4.10;1.20;;;;;;;21.56;68.21;99976.16;10413688;28;96593;-79
2023/09/02 05:04:08;;;;;;;2.80;1.50;;;;;;;21.54;68.24;99969.25;10412586;28;96795;-80
2023/09/02 05:09:12;;;;;;;2.97;1.63;;;;;;;21.65;68.34;99977.16;10412875;28;96724;-79
2023/09/02 05:14:15;;;;;;;2.47;1.58;;;;;;;21.68;68.35;99975.06;10412495;28;96567;-79
2023/09/02 05:19:20;;;;;;;3.97;1.63;;;;;;;21.67;68.21;99960.00;10396044;28;96736;-79
2023/09/02 05:24:23;;;;;;;2.10;1.33;;;;;;;21.61;68.54;99965.88;10371151;28;97316;-79
2023/09/02 05:29:26;;;;;;;2.87;1.70;;;;;;;21.47;69.07;99963.59;10371929;28;96636;-79
2023/09/02 05:34:31;;;;;;;2.63;1.33;;;;;;;21.54;68.77;99954.03;10371254;28;97115;-79
2023/09/02 05:39:38;;;;;;;2.72;1.58;;;;;;;21.60;68.84;99966.88;10371431;28;96630;-80
2023/09/02 05:44:42;;;;;;;2.88;1.48;;;;;;;21.74;68.33;99958.47;10369882;28;96822;-79
2023/09/02 05:49:47;;;;;;;3.78;1.58;;;;;;;21.73;68.19;99970.13;10370351;28;96808;-80
2023/09/02 05:54:51;;;;;;;2.55;1.40;;;;;;;21.75;68.28;99968.19;10370974;28;96718;-80
2023/09/02 05:59:54;;;;;;;2.13;1.25;;;;;;;21.82;68.08;99974.66;10371054;28;97437;-80
2023/09/02 06:04:59;;;;;;;2.67;1.38;;;;;;;21.80;68.02;99986.50;10377543;28;96980;-80
2023/09/02 06:10:02;;;;;;;3.05;1.58;;;;;;;21.76;68.43;99996.63;10378291;28;96796;-79
2023/09/02 06:15:06;;;;;;;2.70;1.38;;;;;;;21.73;68.64;99996.09;10335514;28;96879;-80
2023/09/02 06:20:15;;;;;;;;;;;;;;;21.70;69.21;100007.91;10361072;28;97599;-80
2023/09/02 06:25:18;;;;;;;2.47;1.20;;;;;;;21.58;68.70;100017.03;10376572;28;97470;-80
2023/09/02 06:30:21;;;;;;;1.92;1.20;;;;;;;21.65;68.40;100018.19;10377070;28;96763;-80
2023/09/02 06:35:30;;;;;;;2.13;1.10;;;;;;;21.67;68.58;100021.59;10375427;28;96851;-80
2023/09/02 06:40:33;;;;;;;2.00;1.23;;;;;;;21.71;68.32;100019.50;10376522;28;96608;-80
2023/09/02 06:45:37;;;;;;;2.55;1.35;;;;;;;21.69;68.23;100021.44;10376483;28;97456;-79
2023/09/02 06:50:45;;;;;;;1.97;1.63;;;;;;;21.76;68.32;100017.25;10375924;28;100172;-80
2023/09/02 06:55:49;;;;;;;1.58;1.02;;;;;;;21.85;67.68;100021.78;10375823;28;97284;-79
2023/09/02 07:00:52;;;;;;;2.53;1.47;;;;;;;21.93;67.92;100024.63;10375565;28;96796;-79
2023/09/02 07:06:04;;;;;;;3.42;1.60;;;;;;;21.77;68.24;100021.59;10416583;28;96901;-79
2023/09/02 07:11:09;;;;;;;2.83;1.48;;;;;;;21.74;68.21;100022.75;10417714;27;96770;-79
2023/09/02 07:16:13;;;;;;;3.03;1.55;;;;;;;21.75;68.27;100011.03;10422674;22;97021;-80
2023/09/02 07:21:22;;;;;;;3.10;1.77;;;;;;;21.84;67.74;99995.97;10292550;28;97585;-79
2023/09/02 07:26:28;;;;;;;3.38;1.50;;;;;;;21.79;68.06;99999.06;10292508;28;96592;-79
2023/09/02 07:31:32;;;;;;;3.45;1.75;;;;;;;21.83;68.01;99987.06;10292187;28;96683;-79
2023/09/02 07:36:37;;;;;;;3.27;1.80;;;;;;;21.81;68.05;99977.50;10292617;28;96732;-79
2023/09/02 07:41:40;;;;;;;2.72;1.52;;;;;;;21.63;68.71;99977.31;10292171;28;96594;-79
2023/09/02 07:46:43;;;;;;;3.80;1.73;;;;;;;21.45;69.03;99976.25;10291923;28;97187;-79
2023/09/02 07:51:48;;;;;;;2.42;1.30;;;;;;;21.62;68.98;99964.91;10291669;28;96681;-79
2023/09/02 07:56:51;;;;;;;1.40;1.15;;;;;;;21.58;68.91;99958.13;10292072;28;96737;-79
2023/09/02 08:01:54;;;;;;;2.55;1.40;;;;;;;21.56;69.09;99959.25;10292312;28;97371;-79
2023/09/02 08:06:59;;;;;;;3.03;1.70;;;;;;;21.57;69.28;99959.13;10290818;28;96656;-79
2023/09/02 08:12:03;;;;;;;2.60;1.50;;;;;;;21.37;70.10;99957.34;10291481;28;96761;-79
2023/09/02 08:17:07;;;;;;;2.53;1.50;;;;;;;21.58;69.64;99966.16;10288895;28;96973;-80
2023/09/02 08:22:11;;;;;;;3.75;1.80;;;;;;;21.61;69.31;99955.16;10290632;28;96631;-79
2023/09/02 08:27:15;;;;;;;2.97;1.50;;;;;;;21.69;69.52;99960.72;10290911;28;96695;-79
2023/09/02 08:32:19;;;;;;;2.72;1.48;;;;;;;21.85;68.94;99968.22;10290579;28;97384;-79
2023/09/02 08:37:24;;;;;;;3.53;1.75;;;;;;;22.04;68.63;99965.59;10290600;28;97069;-79
2023/09/02 08:42:27;;;;;;;3.25;1.52;;;;;;;22.22;67.95;99963.88;10290162;28;96590;-79
2023/09/02 08:47:34;;;;;;;3.80;1.80;;;;;;;22.25;68.20;99971.63;10290470;28;96752;-80
2023/09/02 08:52:40;;;;;;;3.45;1.58;;;;;;;22.46;67.58;99969.66;10290531;28;96761;-79
2023/09/02 08:57:45;;;;;;;3.15;1.77;;;;;;;22.63;67.44;99967.09;10289912;28;96697;-80
2023/09/02 09:02:49;;;;;;;3.13;1.85;;;;;;;22.86;66.88;99970.31;10290208;28;97544;-79
2023/09/02 09:07:54;;;;;;;2.13;1.42;;;;;;;22.88;67.29;99987.13;10288453;28;96936;-79
2023/09/02 09:12:58;;;;;;;1.67;1.33;;;;;;;23.22;66.69;99987.44;10289429;28;96670;-80
2023/09/02 09:18:03;;;;;;;2.33;1.53;;;;;;;23.16;67.27;99982.66;10297228;28;97101;-80
2023/09/02 09:23:09;;;;;;;2.90;1.48;;;;;;;23.14;67.88;99974.78;10330217;28;96672;-79
2023/09/02 09:28:13;;;;;;;4.05;1.70;;;;;;;22.86;68.21;99966.78;10330018;28;96670;-79
2023/09/02 09:33:19;;;;;;;3.20;1.55;;;;;;;22.69;68.81;99964.81;10329331;28;96778;-79
2023/09/02 09:38:37;;;;;;;2.33;1.75;;;;;;;22.72;68.64;99965.38;10334778;28;96665;-79
2023/09/02 09:43:41;;;;;;;2.30;1.70;;;;;;;22.58;68.43;99971.19;10338141;28;96594;-79
2023/09/02 09:48:48;;;;;;;2.63;1.63;;;;;;;22.54;68.74;99973.31;10336835;28;97653;-80
2023/09/02 09:53:52;;;;;;;3.03;2.00;;;;;;;22.58;68.32;99977.41;10335889;28;96741;-80
2023/09/02 09:58:56;;;;;;;4.50;2.50;;;;;;;22.22;69.66;99972.78;10335509;28;96752;-79
2023/09/02 10:03:59;;;;;;;4.90;3.13;;;;;;;22.38;69.47;99978.44;10336561;28;98152;-79
2023/09/02 10:09:04;;;;;;;7.15;3.83;;;;;;;22.55;68.93;99977.69;10335467;28;96657;-79
2023/09/02 10:14:09;;;;;;;4.20;2.83;;;;;;;22.79;68.58;99984.47;10335692;28;96558;-79
2023/09/02 10:19:12;;;;;;;;;;;;;;;23.08;67.64;99988.75;10311216;28;96694;-79
2023/09/02 10:24:18;;;;;;;3.92;2.20;;;;;;;23.14;67.59;100000.75;10294501;28;96859;-79
2023/09/02 10:29:27;;;;;;;4.45;2.38;;;;;;;23.30;66.98;100001.00;10296018;28;97109;-79
2023/09/02 10:34:39;;;;;;;2.42;1.80;;;;;;;23.51;66.12;99985.50;10295087;28;97313;-79
2023/09/02 10:39:53;;;;;;;2.63;1.50;;;;;;;23.67;65.33;99973.13;10293905;28;96675;-79
2023/09/02 10:44:56;;;;;;;2.15;1.27;;;;;;;23.87;64.41;99990.00;10294592;28;96705;-79
2023/09/02 10:50:00;;;;;;;2.77;1.40;;;;;;;24.03;63.67;99982.06;10292601;28;97608;-78
2023/09/02 10:55:08;;;;;;;2.35;1.60;;;;;;;24.44;62.47;99986.03;10293563;28;96707;-79
2023/09/02 11:00:19;;;;;;;2.45;1.27;;;;;;;24.48;61.98;99977.50;10293630;28;96925;-79
2023/09/02 11:05:23;;;;;;;3.50;1.90;;;;;;;24.96;61.32;99968.09;10293319;28;96676;-79
2023/09/02 11:10:54;;;;;;;1.85;1.25;;;;;;;24.53;61.90;99963.59;10292897;28;96704;-79
2023/09/02 11:16:14;;;;;;;2.55;1.65;;;;;;;24.69;61.29;99963.69;10292423;28;96560;-79
2023/09/02 11:21:39;;;;;;;1.65;1.10;;;;;;;24.91;58.64;99957.81;10292876;28;96712;-79
2023/09/02 11:26:58;;;;;;;2.50;1.23;;;;;;;25.29;57.91;99945.75;10285127;28;97541;-80
2023/09/02 11:32:02;;;;;;;2.35;1.50;;;;;;;26.15;56.77;99933.72;10292269;28;96575;-79
2023/09/02 11:37:07;;;;;;;2.00;1.50;;;;;;;26.60;54.80;99926.84;10292787;28;96692;-80
2023/09/02 11:42:13;;;;;;;2.20;1.70;;;;;;;26.85;54.01;99909.59;10291129;28;97105;-80
2023/09/02 11:47:16;;;;;;;2.85;1.48;;;;;;;27.51;52.07;99908.38;10291557;28;96675;-80
2023/09/02 11:52:22;;;;;;;3.35;1.77;;;;;;;28.17;50.15;99889.69;10292191;28;97404;-80
2023/09/02 11:57:29;;;;;;;2.45;1.75;;;;;;;28.47;48.98;99882.53;10290604;28;97109;-80
2023/09/02 12:02:36;;;;;;;3.50;1.60;;;;;;;29.45;46.74;99867.72;10291720;28;96934;-80
2023/09/02 12:07:44;;;;;;;2.38;1.77;;;;;;;29.16;46.89;99858.59;10291849;28;96566;-80
2023/09/02 12:12:51;;;;;;;2.90;1.70;;;;;;;30.26;43.75;99844.59;10291213;28;96738;-80
2023/09/02 12:17:55;;;;;;;2.72;1.42;;;;;;;29.93;44.49;99835.31;10291080;28;97580;-80
2023/09/02 12:22:59;;;;;;;1.73;1.30;;;;;;;30.51;43.42;99836.03;10290639;28;97436;-80
2023/09/02 12:28:15;;;;;;;1.85;1.30;;;;;;;31.07;41.65;99821.34;10291073;28;96718;-79
2023/09/02 12:33:19;;;;;;;2.40;1.35;;;;;;;31.07;42.38;99810.47;10289641;28;96598;-80
2023/09/02 12:38:23;;;;;;;1.70;1.30;;;;;;;30.20;43.98;99807.41;10290325;28;97352;-79
2023/09/02 12:43:29;;;;;;;1.63;1.20;;;;;;;29.67;44.78;99810.63;10291171;28;96729;-80
2023/09/02 12:48:34;;;;;;;3.05;1.30;;;;;;;29.11;45.57;99803.28;10289605;28;96542;-79
2023/09/02 12:53:39;;;;;;;1.35;0.95;;;;;;;28.67;46.35;99799.75;10289719;28;96763;-78
2023/09/02 12:58:45;;;;;;;1.70;1.20;;;;;;;28.18;47.08;99793.13;10289946;28;96683;-78
2023/09/02 13:03:50;;;;;;;1.73;1.17;;;;;;;27.85;48.00;99792.56;10289568;28;97838;-79
2023/09/02 13:08:55;;;;;;;2.13;1.20;;;;;;;27.34;48.70;99801.38;10289651;28;96654;-78
2023/09/02 13:14:02;;;;;;;1.83;1.20;;;;;;;27.17;48.78;99787.09;10289425;28;96650;-79
2023/09/02 13:19:06;;;;;;;2.10;1.23;;;;;;;26.74;49.50;99787.63;10289160;28;98046;-79
2023/09/02 13:24:16;;;;;;;2.40;1.70;;;;;;;26.63;49.53;99777.19;10288075;28;96679;-79
2023/09/02 13:29:23;;;;;;;2.13;1.30;;;;;;;26.27;50.58;99759.72;10289810;28;97828;-78
2023/09/02 13:34:31;;;;;;;1.95;1.40;;;;;;;26.12;51.14;99765.00;10289405;28;96714;-79
2023/09/02 13:39:36;;;;;;;2.10;1.52;;;;;;;25.86;51.68;99778.69;10288836;28;96767;-78
2023/09/02 13:44:42;;;;;;;1.70;1.25;;;;;;;25.75;51.81;99759.28;10288559;28;96617;-79
2023/09/02 13:49:53;;;;;;;2.22;1.52;;;;;;;25.56;52.63;99775.75;10289469;28;97392;-78
2023/09/02 13:54:57;;;;;;;2.53;1.50;;;;;;;25.32;53.26;99767.66;10288390;28;97099;-78
2023/09/02 14:00:07;;;;;;;2.78;1.90;;;;;;;25.26;52.87;99763.75;10289439;28;97298;-78
2023/09/02 14:05:15;;;;;;;2.72;1.70;;;;;;;25.30;52.89;99761.56;10288099;28;97673;-79
2023/09/02 14:10:19;;;;;;;1.83;1.42;;;;;;;25.40;52.91;99760.41;10287966;28;96706;-79
2023/09/02 14:15:24;;;;;;;2.80;1.88;;;;;;;25.41;52.99;99755.88;10287195;28;97025;-79
2023/09/02 14:20:27;;;;;;;2.78;1.58;;;;;;;25.43;53.12;99767.34;10287363;28;96746;-79
2023/09/02 14:25:30;;;;;;;2.30;1.60;;;;;;;25.45;53.48;99773.41;10295494;28;98082;-78
2023/09/02 14:30:35;;;;;;;3.40;2.07;;;;;;;25.27;54.66;99778.06;10294267;28;96796;-79
2023/09/02 14:35:39;;;;;;;3.92;2.63;;;;;;;25.33;54.72;99761.25;10294119;28;96889;-79
2023/09/02 14:40:42;;;;;;;4.47;2.97;;;;;;;25.52;55.09;99760.94;10294774;28;96814;-78
2023/09/02 14:45:47;;;;;;;3.87;2.20;;;;;;;25.50;55.20;99761.09;10293907;28;97095;-79
2023/09/02 14:50:50;;;;;;;3.65;2.80;;;;;;;25.40;55.61;99755.03;10295059;28;96570;-79
2023/09/02 14:55:53;;;;;;;3.60;3.07;;;;;;;25.39;55.51;99761.44;10293483;28;97709;-79
2023/09/02 15:01:01;;;;;;;6.82;4.18;;;;;;;24.86;57.65;99771.72;10294098;28;96757;-78
2023/09/02 15:06:05;;;;;;;7.47;4.43;;;;;;;24.86;58.10;99779.78;10292104;28;96858;-80
2023/09/02 15:11:08;;;;;;;7.10;3.97;;;;;;;24.83;58.25;99781.97;10292442;28;96749;-79
2023/09/02 15:16:15;;;;;;;6.67;4.37;;;;;;;24.77;58.72;99780.75;10300175;28;97133;-79
2023/09/02 15:21:20;;;;;;;8.10;4.53;;;;;;;25.00;58.07;99773.78;10292862;28;96897;-79
2023/09/02 15:26:23;;;;;;;8.25;5.00;;;;;;;25.03;58.31;99794.16;10292584;28;96835;-79
2023/09/02 15:31:27;;;;;;;8.27;4.37;;;;;;;25.13;58.39;99800.25;10293076;28;97818;-79
2023/09/02 15:36:31;;;;;;;3.38;2.45;;;;;;;25.08;57.43;99787.28;10292373;28;96913;-79
2023/09/02 15:41:34;;;;;;;5.03;2.43;;;;;;;25.12;57.10;99787.81;10292660;28;97764;-80
2023/09/02 15:46:39;;;;;;;3.93;2.20;;;;;;;24.83;56.69;99788.16;10291698;28;96843;-80
2023/09/02 15:51:42;;;;;;;3.50;2.22;;;;;;;24.81;56.82;99768.63;10292436;28;97450;-80
2023/09/02 15:56:45;;;;;;;3.60;2.30;;;;;;;25.04;56.42;99752.75;10290569;28;96697;-79
2023/09/02 16:01:50;;;;;;;5.00;2.10;;;;;;;24.78;56.83;99750.97;10291291;28;96631;-81
2023/09/02 16:06:53;;;;;;;3.97;2.13;;;;;;;24.87;56.61;99730.31;10291925;28;96954;-80
2023/09/02 16:11:56;;;;;;;4.30;2.70;;;;;;;24.87;56.73;99730.31;10291273;28;96735;-80
2023/09/02 16:17:02;;;;;;;2.80;1.80;;;;;;;24.98;55.93;99715.72;10290099;28;100781;-79
2023/09/02 16:22:05;;;;;;;3.40;1.75;;;;;;;25.00;55.82;99694.88;10291641;28;96690;-80
2023/09/02 16:27:11;;;;;;;2.92;1.90;;;;;;;25.14;55.01;99680.78;10291715;28;96668;-81
2023/09/02 16:32:16;;;;;;;2.63;1.80;;;;;;;25.24;54.98;99652.66;10291599;28;98012;-80
2023/09/02 16:37:19;;;;;;;4.35;2.28;;;;;;;25.39;54.87;99644.75;10290277;28;97731;-80
2023/09/02 16:42:27;;;;;;;2.45;1.75;;;;;;;25.28;54.78;99650.47;10291237;28;97832;-81
2023/09/02 16:47:44;;;;;;;3.05;1.63;;;;;;;25.14;55.46;99646.59;10288741;28;97667;-80
2023/09/02 16:52:50;;;;;;;2.25;1.70;;;;;;;25.17;54.93;99646.28;10290308;28;98020;-79
2023/09/02 16:57:54;;;;;;;3.50;1.63;;;;;;;25.19;55.15;99651.50;10290234;28;96786;-80
2023/09/02 17:03:01;;;;;;;2.20;1.38;;;;;;;24.93;55.73;99659.66;10289861;28;96999;-79
2023/09/02 17:08:07;;;;;;;3.17;1.63;;;;;;;24.82;55.70;99657.31;10289402;28;96639;-80
2023/09/02 17:13:11;;;;;;;2.95;1.42;;;;;;;24.75;55.53;99681.34;10289935;28;96752;-80
2023/09/02 17:18:17;;;;;;;3.00;1.97;;;;;;;24.74;55.67;99679.63;10288564;28;97756;-79
2023/09/02 17:23:28;;;;;;;2.92;1.70;;;;;;;24.68;55.73;99693.78;10289965;28;96937;-81
2023/09/02 17:28:34;;;;;;;2.65;1.67;;;;;;;24.56;55.21;99697.75;10289198;28;96651;-80
2023/09/02 17:33:39;;;;;;;2.70;1.67;;;;;;;24.56;54.47;99700.47;10318525;28;96734;-80
2023/09/02 17:38:42;;;;;;;2.45;1.65;;;;;;;24.54;54.15;99697.09;10328742;28;96680;-81
2023/09/02 17:43:46;;;;;;;2.93;1.57;;;;;;;24.50;54.10;99695.72;10329581;28;96689;-80
2023/09/02 17:48:50;;;;;;;2.73;1.40;;;;;;;24.46;54.08;99712.34;10328599;28;96718;-80
2023/09/02 17:53:54;;;;;;;2.55;1.42;;;;;;;24.43;54.31;99724.25;10329506;28;97459;-80
2023/09/02 17:58:57;;;;;;;1.97;1.20;;;;;;;24.39;53.91;99747.09;10334056;28;96916;-80
2023/09/02 18:04:01;;;;;;;1.47;1.17;;;;;;;24.27;53.34;99748.34;10335439;28;97924;-80
2023/09/02 18:09:05;;;;;;;2.72;1.25;;;;;;;24.21;53.57;99754.38;10254520;28;96884;-81
2023/09/02 18:14:08;;;;;;;2.17;1.20;;;;;;;24.17;53.30;99766.44;10255459;28;97989;-80
2023/09/02 18:19:13;;;;;;;2.10;1.30;;;;;;;24.06;53.69;99782.84;10288140;28;96643;-80
2023/09/02 18:24:16;;;;;;;1.83;1.15;;;;;;;23.98;53.20;99790.84;10295804;28;96778;-81
2023/09/02 18:29:19;;;;;;;2.07;1.03;;;;;;;23.90;53.31;99776.50;10293644;28;97792;-80
2023/09/02 18:34:24;;;;;;;2.93;1.33;;;;;;;23.86;53.96;99786.72;10294443;28;96564;-80
2023/09/02 18:39:28;;;;;;;3.25;1.35;;;;;;;23.79;54.42;99800.94;10294557;28;96714;-80
2023/09/02 18:44:31;;;;;;;4.70;1.53;;;;;;;23.72;54.46;99789.13;10294062;28;96640;-80
2023/09/02 18:49:36;;;;;;;2.13;1.50;;;;;;;23.66;54.30;99782.53;10293751;28;96617;-80
2023/09/02 18:54:39;;;;;;;1.52;1.13;;;;;;;23.61;53.81;99796.41;10293728;28;96933;-80
2023/09/02 18:59:42;;;;;;;2.73;1.70;;;;;;;23.58;54.01;99798.56;10294032;28;96727;-80
2023/09/02 19:04:47;;;;;;;1.70;1.30;;;;;;;23.47;54.65;99801.44;10294068;28;96542;-80
2023/09/02 19:09:50;;;;;;;1.45;1.08;;;;;;;23.39;55.12;99796.84;10292402;28;96750;-81
2023/09/02 19:14:53;;;;;;;1.80;0.93;;;;;;;23.27;55.89;99798.06;10293831;28;96630;-80
2023/09/02 19:20:03;;;;;;;2.35;1.23;;;;;;;23.11;56.42;99808.59;10250853;28;96641;-80
2023/09/02 19:25:07;;;;;;;1.35;0.82;;;;;;;23.04;56.69;99815.59;10252498;28;97382;-81
2023/09/02 19:30:11;;;;;;;;;;;;;;;22.97;57.11;99824.38;10277701;28;97003;-80
2023/09/02 19:35:15;;;;;;;2.08;0.90;;;;;;;22.86;58.16;99835.31;10292557;28;96635;-80
2023/09/02 19:40:22;;;;;;;1.40;0.82;;;;;;;22.81;57.84;99845.66;10292132;28;96961;-80
2023/09/02 19:45:26;;;;;;;1.85;1.20;;;;;;;22.77;57.82;99849.56;10292287;28;96965;-81
2023/09/02 19:50:34;;;;;;;2.13;1.00;;;;;;;22.75;57.74;99860.44;10369272;22;96981;-80
2023/09/02 19:55:52;;;;;;;1.17;0.70;;;;;;;22.71;57.80;99864.44;10374976;28;96751;-80
2023/09/02 20:00:56;;;;;;;1.52;1.00;;;;;;;22.67;57.78;99895.22;10374211;28;97058;-80
2023/09/02 20:06:00;;;;;;;2.10;0.93;;;;;;;22.60;58.03;99903.00;10398811;28;96714;-80
2023/09/02 20:11:05;;;;;;;1.45;0.90;;;;;;;22.54;58.10;99900.91;10414783;28;97767;-80
2023/09/02 20:16:08;;;;;;;0.77;0.70;;;;;;;22.44;57.70;99905.44;10404596;28;96824;-80
2023/09/02 20:21:12;;;;;;;1.73;0.87;;;;;;;22.45;57.64;99909.81;10373100;28;96855;-81
2023/09/02 20:26:16;;;;;;;1.80;0.90;;;;;;;22.41;57.51;99904.88;10373059;28;96550;-80
2023/09/02 20:31:21;;;;;;;3.23;1.27;;;;;;;22.41;57.89;99905.75;10373041;28;96730;-80
2023/09/02 20:36:26;;;;;;;5.05;2.00;;;;;;;22.40;57.23;99908.56;10372777;28;96579;-80
2023/09/02 20:41:29;;;;;;;2.30;1.30;;;;;;;22.44;56.67;99912.63;10373016;28;96725;-80
2023/09/02 20:46:32;;;;;;;1.95;0.98;;;;;;;22.47;56.01;99901.63;10372654;28;96911;-80
2023/09/02 20:51:37;;;;;;;1.77;0.70;;;;;;;22.48;54.81;99877.34;10372227;28;96670;-81
2023/09/02 20:56:41;;;;;;;0.70;0.57;;;;;;;22.39;54.60;99878.22;10394418;28;97963;-79
2023/09/02 21:01:46;;;;;;;2.05;0.88;;;;;;;22.38;54.47;99876.53;10412898;27;96578;-80
2023/09/02 21:06:51;;;;;;;0.80;0.57;;;;;;;22.35;54.20;99881.34;10413942;28;96725;-80
2023/09/02 21:11:54;;;;;;;0.80;0.43;;;;;;;22.26;54.36;99887.56;10412567;28;96808;-81
2023/09/02 21:16:57;;;;;;;0.75;0.52;;;;;;;22.23;54.63;99891.34;10408659;27;96743;-80
2023/09/02 21:22:02;;;;;;;1.73;0.68;;;;;;;22.13;55.07;99901.25;10371830;28;97742;-80
2023/09/02 21:27:06;;;;;;;1.33;0.80;;;;;;;22.11;55.28;99892.50;10371535;28;96663;-80
2023/09/02 21:32:10;;;;;;;2.05;0.82;;;;;;;22.12;55.30;99875.44;10379558;28;96734;-80
2023/09/02 21:37:14;;;;;;;1.23;0.70;;;;;;;22.13;55.48;99878.94;10385174;28;98620;-80
2023/09/02 21:42:19;;;;;;;0.85;0.60;;;;;;;22.19;55.54;99878.41;10385074;28;96702;-80
2023/09/02 21:47:21;;;;;;;;;;;;;;;22.04;56.14;99864.56;10395261;28;97559;-80
2023/09/02 21:52:26;;;;;;;0.95;0.55;;;;;;;22.03;56.11;99837.91;10383904;28;96713;-79
2023/09/02 21:57:30;;;;;;;1.33;0.60;;;;;;;21.87;56.47;99867.94;10384225;28;96740;-80
2023/09/02 22:02:33;;;;;;;0.70;0.57;;;;;;;21.69;57.17;99877.69;10384873;28;96799;-80
2023/09/02 22:07:38;;;;;;;1.80;0.70;;;;;;;21.63;57.96;99910.34;10384513;28;97310;-80
2023/09/02 22:12:41;;;;;;;0.65;0.60;;;;;;;21.64;57.81;99916.56;10383602;28;97708;-80
2023/09/02 22:17:44;;;;;;;1.30;0.73;;;;;;;21.75;57.31;99930.66;10383588;28;96733;-80
2023/09/02 22:22:50;;;;;;;1.53;0.70;;;;;;;21.68;57.09;99939.38;10384719;28;97891;-80
2023/09/02 22:27:53;;;;;;;2.00;0.73;;;;;;;21.58;57.30;99949.25;10385482;28;96833;-79
2023/09/02 22:32:56;;;;;;;0.73;0.73;;;;;;;21.58;57.05;99966.16;10342491;28;96571;-80
2023/09/02 22:38:01;;;;;;;2.08;1.10;;;;;;;21.51;57.15;99975.72;10359799;28;97191;-80
2023/09/02 22:43:05;;;;;;;0.90;0.60;;;;;;;21.45;57.41;99976.25;10379064;28;97087;-80
2023/09/02 22:48:08;;;;;;;0.77;0.53;;;;;;;21.47;56.96;99987.69;10375752;28;97671;-80
2023/09/02 22:53:13;;;;;;;0.73;0.50;;;;;;;21.50;56.99;99990.09;10377020;28;96673;-79
2023/09/02 22:58:16;;;;;;;2.53;0.55;;;;;;;21.45;56.90;99995.84;10375909;28;96767;-80
2023/09/02 23:03:20;;;;;;;1.63;0.68;;;;;;;21.35;57.16;99992.31;10375857;28;97517;-80
2023/09/02 23:08:25;;;;;;;;;;;;;;;21.30;57.54;99997.22;10376302;28;97806;-79
2023/09/02 23:13:28;;;;;;;1.23;0.73;;;;;;;21.25;57.35;99991.41;10376687;28;97640;-80
2023/09/02 23:18:32;;;;;;;0.73;0.45;;;;;;;21.30;57.26;99986.50;10375764;28;96767;-80
2023/09/02 23:23:37;;;;;;;1.30;0.93;;;;;;;21.24;57.30;99983.53;10375053;28;96773;-79
2023/09/02 23:28:41;;;;;;;1.45;1.10;;;;;;;21.23;57.33;99993.38;10375695;28;96720;-80
2023/09/02 23:33:44;;;;;;;1.98;1.23;;;;;;;21.27;57.42;99996.63;10374232;28;97010;-80
2023/09/02 23:38:49;;;;;;;2.33;1.75;;;;;;;21.38;56.75;99991.19;10374491;28;97172;-80